createdAt,value
2019-05-15T00:00:52.267Z,47.409459
2019-05-15T00:01:55.308Z,47.409481
2019-05-15T00:02:58.926Z,47.409473
2019-05-15T00:04:02.267Z,47.409465
2019-05-15T00:05:05.299Z,47.409446
2019-05-15T00:06:08.645Z,47.409365
2019-05-15T00:07:11.301Z,47.409381
2019-05-15T00:08:14.343Z,47.409376
2019-05-15T00:09:19.104Z,47.409491
2019-05-15T00:10:22.287Z,47.409462
2019-05-15T00:11:25.321Z,47.409323
2019-05-15T00:12:28.491Z,47.409258
2019-05-15T00:13:31.320Z,47.409393
2019-05-15T00:14:34.295Z,47.409558
2019-05-15T00:15:39.784Z,47.409599
2019-05-15T00:16:42.315Z,47.409530
2019-05-15T00:17:45.280Z,47.409384
2019-05-15T00:18:48.406Z,47.409351
2019-05-15T00:19:51.284Z,47.409473
2019-05-15T00:20:54.297Z,47.409459
2019-05-15T00:21:58.585Z,47.409505
2019-05-15T00:23:01.277Z,47.409484
2019-05-15T00:24:04.349Z,47.409610
2019-05-15T00:25:09.316Z,47.409501
2019-05-15T00:26:12.298Z,47.409420
2019-05-15T00:27:14.293Z,47.409340
2019-05-15T00:28:18.570Z,47.409348
2019-05-15T00:29:21.312Z,47.409262
2019-05-15T00:30:24.315Z,47.409336
2019-05-15T00:31:29.161Z,47.409428
2019-05-15T00:32:32.310Z,47.409298
2019-05-15T00:33:35.306Z,47.409306
2019-05-15T00:34:38.271Z,47.409217
2019-05-15T00:35:41.322Z,47.409226
2019-05-15T00:36:44.269Z,47.409312
2019-05-15T00:37:49.263Z,47.409337
2019-05-15T00:38:52.316Z,47.409329
2019-05-15T00:39:55.317Z,47.409287
2019-05-15T00:40:58.610Z,47.409350
2019-05-15T00:42:01.320Z,47.409358
2019-05-15T00:43:04.292Z,47.409293
2019-05-15T00:44:09.226Z,47.409285
2019-05-15T00:45:12.266Z,47.409346
2019-05-15T00:46:15.273Z,47.409435
2019-05-15T00:47:18.325Z,47.409373
2019-05-15T00:48:21.302Z,47.409300
2019-05-15T00:49:24.335Z,47.409318
2019-05-15T00:50:28.744Z,47.409322
2019-05-15T00:51:30.282Z,47.409409
2019-05-15T00:52:33.292Z,47.409380
2019-05-15T00:53:38.752Z,47.409341
2019-05-15T00:54:42.356Z,47.409340
2019-05-15T00:55:45.277Z,47.409389
2019-05-15T00:56:48.524Z,47.409258
2019-05-15T00:57:51.309Z,47.409345
2019-05-15T00:58:54.282Z,47.409333
2019-05-15T00:59:58.954Z,47.409326
2019-05-15T01:01:02.308Z,47.409364
2019-05-15T01:02:05.283Z,47.409346
2019-05-15T01:03:08.749Z,47.409330
2019-05-15T01:04:12.347Z,47.409249
2019-05-15T01:05:15.282Z,47.409276
2019-05-15T01:06:19.033Z,47.409355
2019-05-15T01:07:21.301Z,47.409367
2019-05-15T01:08:24.272Z,47.409403
2019-05-15T01:09:29.226Z,47.409368
2019-05-15T01:10:32.309Z,47.409420
2019-05-15T01:11:35.288Z,47.409431
2019-05-15T01:12:38.304Z,47.409443
2019-05-15T01:13:41.286Z,47.409394
2019-05-15T01:14:44.346Z,47.409380
2019-05-15T01:15:48.966Z,47.409380
2019-05-15T01:16:52.296Z,47.409386
2019-05-15T01:17:55.307Z,47.409417
2019-05-15T01:18:58.563Z,47.409393
2019-05-15T01:20:01.336Z,47.409401
2019-05-15T01:21:04.268Z,47.409417
2019-05-15T01:22:08.709Z,47.409421
2019-05-15T01:23:11.280Z,47.409412
2019-05-15T01:24:14.306Z,47.409398
2019-05-15T01:25:18.609Z,47.409391
2019-05-15T01:26:23.295Z,47.409444
2019-05-15T01:27:28.997Z,47.409469
2019-05-15T01:28:32.302Z,47.409452
2019-05-15T01:29:41.964Z,47.409394
2019-05-15T01:30:43.301Z,47.409366
2019-05-15T01:31:48.508Z,47.409425
2019-05-15T01:32:52.306Z,47.409405
2019-05-15T01:33:55.260Z,47.409361
2019-05-15T01:34:58.348Z,47.409397
2019-05-15T01:36:01.300Z,47.409414
2019-05-15T01:37:04.287Z,47.409361
2019-05-15T01:38:08.107Z,47.409369
2019-05-15T01:39:11.313Z,47.409431
2019-05-15T01:40:14.300Z,47.409444
2019-05-15T01:41:19.336Z,47.409442
2019-05-15T01:42:22.294Z,47.409385
2019-05-15T01:43:25.297Z,47.409393
2019-05-15T01:44:28.704Z,47.409371
2019-05-15T01:45:31.344Z,47.409262
2019-05-15T01:46:34.271Z,47.409319
2019-05-15T01:47:38.925Z,47.409374
2019-05-15T01:48:41.275Z,47.409341
2019-05-15T01:49:44.310Z,47.409231
2019-05-15T01:50:49.221Z,47.409306
2019-05-15T01:51:52.309Z,47.409275
2019-05-15T01:52:55.295Z,47.409301
2019-05-15T01:53:58.511Z,47.409404
2019-05-15T01:55:01.316Z,47.409319
2019-05-15T01:56:04.308Z,47.409349
2019-05-15T01:57:09.370Z,47.409326
2019-05-15T01:58:12.296Z,47.409402
2019-05-15T01:59:15.266Z,47.409370
2019-05-15T02:00:18.839Z,47.409353
2019-05-15T02:01:22.270Z,47.409347
2019-05-15T02:02:25.308Z,47.409284
2019-05-15T02:03:28.970Z,47.409376
2019-05-15T02:04:32.310Z,47.409411
2019-05-15T02:05:35.284Z,47.409439
2019-05-15T02:06:39.075Z,47.409406
2019-05-15T02:07:42.291Z,47.409383
2019-05-15T02:08:45.281Z,47.409420
2019-05-15T02:09:49.273Z,47.409486
2019-05-15T02:10:51.294Z,47.409509
2019-05-15T02:11:54.305Z,47.409465
2019-05-15T02:12:58.746Z,47.409423
2019-05-15T02:14:01.321Z,47.409426
2019-05-15T02:15:04.278Z,47.409359
2019-05-15T02:16:08.400Z,47.409401
2019-05-15T02:17:11.270Z,47.409433
2019-05-15T02:18:14.300Z,47.409435
2019-05-15T02:19:19.219Z,47.409421
2019-05-15T02:20:21.285Z,47.409413
2019-05-15T02:21:24.282Z,47.409410
2019-05-15T02:22:28.332Z,47.409427
2019-05-15T02:23:31.308Z,47.409441
2019-05-15T02:24:34.291Z,47.409403
2019-05-15T02:25:38.761Z,47.409407
2019-05-15T02:26:42.303Z,47.409401
2019-05-15T02:27:45.310Z,47.409413
2019-05-15T02:28:48.829Z,47.409396
2019-05-15T02:29:52.283Z,47.409470
2019-05-15T02:30:58.467Z,47.409433
2019-05-15T02:32:01.292Z,47.409445
2019-05-15T02:33:04.316Z,47.409430
2019-05-15T02:34:10.097Z,47.409442
2019-05-15T02:35:13.285Z,47.409461
2019-05-15T02:36:20.182Z,47.409452
2019-05-15T02:37:23.317Z,47.409439
2019-05-15T02:38:29.272Z,47.409411
2019-05-15T02:39:32.310Z,47.409389
2019-05-15T02:40:35.311Z,47.409387
2019-05-15T02:41:39.752Z,47.409361
2019-05-15T02:42:43.328Z,47.409390
2019-05-15T02:43:49.713Z,47.409453
2019-05-15T02:44:52.311Z,47.409454
2019-05-15T02:45:55.296Z,47.409462
2019-05-15T02:46:58.938Z,47.409409
2019-05-15T02:48:02.290Z,47.409527
2019-05-15T02:49:08.522Z,47.409493
2019-05-15T02:50:12.290Z,47.409418
2019-05-15T02:51:15.347Z,47.409440
2019-05-15T02:52:19.855Z,47.409441
2019-05-15T02:53:23.280Z,47.409455
2019-05-15T02:54:25.294Z,47.409425
2019-05-15T02:55:29.635Z,47.409399
2019-05-15T02:56:33.375Z,47.409372
2019-05-15T02:57:39.408Z,47.409387
2019-05-15T02:58:42.332Z,47.409370
2019-05-15T02:59:45.290Z,47.409407
2019-05-15T03:00:53.141Z,47.409409
2019-05-15T03:01:59.163Z,47.409386
2019-05-15T03:03:02.314Z,47.409392
2019-05-15T03:04:05.276Z,47.409326
2019-05-15T03:05:09.330Z,47.409324
2019-05-15T03:06:11.486Z,47.409329
2019-05-15T03:07:14.317Z,47.409341
2019-05-15T03:08:19.595Z,47.409370
2019-05-15T03:09:23.298Z,47.409377
2019-05-15T03:10:29.397Z,47.409399
2019-05-15T03:11:32.298Z,47.409445
2019-05-15T03:12:35.301Z,47.409425
2019-05-15T03:13:39.217Z,47.409480
2019-05-15T03:14:42.340Z,47.409446
2019-05-15T03:15:48.631Z,47.409407
2019-05-15T03:16:52.294Z,47.409396
2019-05-15T03:17:55.352Z,47.409417
2019-05-15T03:18:59.737Z,47.409509
2019-05-15T03:20:03.310Z,47.409391
2019-05-15T03:21:09.278Z,47.409340
2019-05-15T03:22:13.328Z,47.409345
2019-05-15T03:23:19.527Z,47.409247
2019-05-15T03:24:22.319Z,47.409391
2019-05-15T03:25:25.273Z,47.409421
2019-05-15T03:26:29.826Z,47.409493
2019-05-15T03:27:34.928Z,47.409406
2019-05-15T03:28:39.364Z,47.409442
2019-05-15T03:29:42.298Z,47.409481
2019-05-15T03:31:15.512Z,47.409522
2019-05-15T03:32:13.225Z,47.409520
2019-05-15T03:33:08.820Z,47.409491
2019-05-15T03:34:20.306Z,47.409504
2019-05-15T03:35:21.972Z,47.409414
2019-05-15T03:36:31.104Z,47.409485
2019-05-15T03:37:34.378Z,47.409544
2019-05-15T03:38:39.360Z,47.409452
2019-05-15T03:39:46.534Z,47.409497
2019-05-15T03:40:50.299Z,47.409437
2019-05-15T03:41:53.308Z,47.409550
2019-05-15T03:42:59.270Z,47.409491
2019-05-15T03:44:02.350Z,47.409411
2019-05-15T03:45:05.354Z,47.409420
2019-05-15T03:46:09.144Z,47.409555
2019-05-15T03:47:12.306Z,47.409517
2019-05-15T03:48:15.305Z,47.409452
2019-05-15T03:49:19.924Z,47.409413
2019-05-15T03:50:23.339Z,47.409404
2019-05-15T03:51:28.922Z,47.409436
2019-05-15T03:52:32.300Z,47.409377
2019-05-15T03:53:35.336Z,47.409439
2019-05-15T03:54:39.218Z,47.409464
2019-05-15T03:55:42.282Z,47.409467
2019-05-15T03:56:45.291Z,47.409395
2019-05-15T03:57:49.884Z,47.409465
2019-05-15T03:58:53.331Z,47.409487
2019-05-15T03:59:56.270Z,47.409500
2019-05-15T04:01:00.167Z,47.409416
2019-05-15T04:02:03.332Z,47.409459
2019-05-15T04:03:06.268Z,47.409588
2019-05-15T04:04:09.701Z,47.409575
2019-05-15T04:05:12.463Z,47.409688
2019-05-15T04:06:14.299Z,47.409507
2019-05-15T04:07:18.826Z,47.409356
2019-05-15T04:08:22.309Z,47.409512
2019-05-15T04:09:25.333Z,47.409491
2019-05-15T04:10:28.835Z,47.409421
2019-05-15T04:11:32.290Z,47.409397
2019-05-15T04:12:35.263Z,47.409379
2019-05-15T04:13:39.680Z,47.409357
2019-05-15T04:14:43.277Z,47.409368
2019-05-15T04:15:49.816Z,47.409289
2019-05-15T04:16:53.302Z,47.409331
2019-05-15T04:17:59.993Z,47.409337
2019-05-15T04:19:03.342Z,47.409311
2019-05-15T04:20:09.594Z,47.409359
2019-05-15T04:21:12.317Z,47.409357
2019-05-15T04:22:15.313Z,47.409377
2019-05-15T04:23:19.065Z,47.409456
2019-05-15T04:24:22.332Z,47.409404
2019-05-15T04:25:25.301Z,47.409375
2019-05-15T04:26:28.870Z,47.409415
2019-05-15T04:27:32.326Z,47.409449
2019-05-15T04:28:35.294Z,47.409376
2019-05-15T04:29:39.744Z,47.409378
2019-05-15T04:30:43.317Z,47.409361
2019-05-15T04:31:58.908Z,47.409348
2019-05-15T04:32:54.339Z,47.409395
2019-05-15T04:33:59.318Z,47.409378
2019-05-15T04:35:02.342Z,47.409411
2019-05-15T04:36:05.270Z,47.409450
2019-05-15T04:37:09.400Z,47.409496
2019-05-15T04:38:13.361Z,47.409373
2019-05-15T04:39:19.053Z,47.409377
2019-05-15T04:40:22.344Z,47.409424
2019-05-15T04:41:25.292Z,47.409363
2019-05-15T04:42:29.946Z,47.409440
2019-05-15T04:43:41.267Z,47.409389
2019-05-15T04:44:41.328Z,47.409387
2019-05-15T04:45:44.316Z,47.409396
2019-05-15T04:46:49.794Z,47.409475
2019-05-15T04:47:52.296Z,47.409410
2019-05-15T04:48:55.326Z,47.409328
2019-05-15T04:49:59.028Z,47.409334
2019-05-15T04:51:02.311Z,47.409335
2019-05-15T04:52:05.271Z,47.409301
2019-05-15T04:53:10.670Z,47.409312
2019-05-15T04:54:14.293Z,47.409363
2019-05-15T04:55:19.669Z,47.409306
2019-05-15T04:56:23.315Z,47.409334
2019-05-15T04:57:30.384Z,47.409378
2019-05-15T04:58:34.348Z,47.409377
2019-05-15T04:59:39.086Z,47.409344
2019-05-15T05:00:42.346Z,47.409349
2019-05-15T05:01:45.304Z,47.409307
2019-05-15T05:02:49.643Z,47.409260
2019-05-15T05:03:54.335Z,47.409294
2019-05-15T05:04:58.794Z,47.409323
2019-05-15T05:06:02.356Z,47.409222
2019-05-15T05:07:05.279Z,47.409335
2019-05-15T05:08:09.262Z,47.409274
2019-05-15T05:09:12.269Z,47.409302
2019-05-15T05:10:14.378Z,47.409387
2019-05-15T05:11:19.793Z,47.409417
2019-05-15T05:12:25.329Z,47.409470
2019-05-15T05:13:28.837Z,47.409433
2019-05-15T05:14:32.318Z,47.409488
2019-05-15T05:15:35.301Z,47.409391
2019-05-15T05:16:39.284Z,47.409399
2019-05-15T05:17:43.310Z,47.409475
2019-05-15T05:18:48.573Z,47.409489
2019-05-15T05:19:52.365Z,47.409453
2019-05-15T05:20:57.610Z,47.409449
2019-05-15T05:22:01.326Z,47.409464
2019-05-15T05:23:04.315Z,47.409436
2019-05-15T05:24:08.053Z,47.409407
2019-05-15T05:25:11.315Z,47.409423
2019-05-15T05:26:14.274Z,47.409455
2019-05-15T05:27:18.283Z,47.409467
2019-05-15T05:28:21.305Z,47.409463
2019-05-15T05:29:24.267Z,47.409421
2019-05-15T05:30:29.269Z,47.409425
2019-05-15T05:31:32.306Z,47.409386
2019-05-15T05:32:35.504Z,47.409402
2019-05-15T05:33:39.318Z,47.409410
2019-05-15T05:34:42.283Z,47.409441
2019-05-15T05:35:45.369Z,47.409449
2019-05-15T05:36:48.308Z,47.409394
2019-05-15T05:37:51.320Z,47.409343
2019-05-15T05:38:54.308Z,47.409385
2019-05-15T05:39:57.737Z,47.409517
2019-05-15T05:41:01.310Z,47.409425
2019-05-15T05:42:04.302Z,47.409388
2019-05-15T05:43:09.452Z,47.409486
2019-05-15T05:44:12.274Z,47.409475
2019-05-15T05:45:15.319Z,47.409440
2019-05-15T05:46:18.591Z,47.409415
2019-05-15T05:47:21.318Z,47.409461
2019-05-15T05:48:24.319Z,47.409576
2019-05-15T05:49:28.858Z,47.409566
2019-05-15T05:50:31.312Z,47.409605
2019-05-15T05:51:34.335Z,47.409487
2019-05-15T05:52:38.959Z,47.409252
2019-05-15T05:53:42.316Z,47.409346
2019-05-15T05:54:45.332Z,47.409432
2019-05-15T05:55:49.201Z,47.409438
2019-05-15T05:56:54.340Z,47.409576
2019-05-15T05:57:58.418Z,47.409598
2019-05-15T05:59:01.294Z,47.409449
2019-05-15T06:00:04.320Z,47.409584
2019-05-15T06:01:09.406Z,47.409667
2019-05-15T06:02:12.301Z,47.409534
2019-05-15T06:03:15.346Z,47.409622
2019-05-15T06:04:18.726Z,47.409494
2019-05-15T06:05:22.321Z,47.409683
2019-05-15T06:06:25.346Z,47.409797
2019-05-15T06:07:28.306Z,47.409595
2019-05-15T06:08:31.316Z,47.409542
2019-05-15T06:09:34.310Z,47.409462
2019-05-15T06:10:38.573Z,47.409559
2019-05-15T06:11:42.339Z,47.409474
2019-05-15T06:12:45.283Z,47.409410
2019-05-15T06:13:52.264Z,47.409427
2019-05-15T06:14:55.309Z,47.409416
2019-05-15T06:15:59.094Z,47.409409
2019-05-15T06:17:02.348Z,47.409441
2019-05-15T06:18:05.312Z,47.409484
2019-05-15T06:19:08.432Z,47.409474
2019-05-15T06:20:11.274Z,47.409497
2019-05-15T06:21:14.334Z,47.409511
2019-05-15T06:22:18.804Z,47.409567
2019-05-15T06:23:25.114Z,47.409438
2019-05-15T06:24:30.525Z,47.409592
2019-05-15T06:25:34.322Z,47.409519
2019-05-15T06:26:38.598Z,47.409433
2019-05-15T06:27:41.317Z,47.409319
2019-05-15T06:28:44.291Z,47.409344
2019-05-15T06:29:48.487Z,47.409333
2019-05-15T06:30:51.315Z,47.409371
2019-05-15T06:31:54.369Z,47.409344
2019-05-15T06:33:05.694Z,47.409319
2019-05-15T06:34:05.326Z,47.409331
2019-05-15T06:35:09.358Z,47.409390
2019-05-15T06:36:12.286Z,47.409399
2019-05-15T06:37:15.355Z,47.409435
2019-05-15T06:38:19.452Z,47.409386
2019-05-15T06:39:23.366Z,47.409400
2019-05-15T06:40:28.752Z,47.409410
2019-05-15T06:41:34.003Z,47.409400
2019-05-15T06:42:39.457Z,47.409329
2019-05-15T06:43:42.288Z,47.409331
2019-05-15T06:44:48.351Z,47.409386
2019-05-15T06:45:51.297Z,47.409400
2019-05-15T06:46:54.340Z,47.409325
2019-05-15T06:47:58.221Z,47.409448
2019-05-15T06:49:03.329Z,47.409424
2019-05-15T06:50:08.418Z,47.409438
2019-05-15T06:51:11.337Z,47.409351
2019-05-15T06:52:14.344Z,47.409355
2019-05-15T06:53:19.356Z,47.409358
2019-05-15T06:54:22.305Z,47.409393
2019-05-15T06:55:25.342Z,47.409417
2019-05-15T06:56:28.187Z,47.409442
2019-05-15T06:57:31.342Z,47.409415
2019-05-15T06:58:34.345Z,47.409447
2019-05-15T06:59:38.927Z,47.409525
2019-05-15T07:00:42.298Z,47.409451
2019-05-15T07:01:47.953Z,47.409445
2019-05-15T07:02:51.318Z,47.409437
2019-05-15T07:03:54.304Z,47.409373
2019-05-15T07:04:58.414Z,47.409366
2019-05-15T07:06:01.301Z,47.409428
2019-05-15T07:07:04.318Z,47.409405
2019-05-15T07:08:09.098Z,47.409411
2019-05-15T07:09:12.336Z,47.409439
2019-05-15T07:10:15.334Z,47.409440
2019-05-15T07:11:19.062Z,47.409410
2019-05-15T07:12:21.382Z,47.409423
2019-05-15T07:13:24.306Z,47.409378
2019-05-15T07:14:28.785Z,47.409401
2019-05-15T07:15:32.322Z,47.409442
2019-05-15T07:16:35.290Z,47.409409
2019-05-15T07:17:39.317Z,47.409411
2019-05-15T07:18:43.312Z,47.409331
2019-05-15T07:19:48.443Z,47.409321
2019-05-15T07:20:51.303Z,47.409320
2019-05-15T07:21:54.367Z,47.409357
2019-05-15T07:22:58.646Z,47.409380
2019-05-15T07:24:02.308Z,47.409340
2019-05-15T07:25:05.307Z,47.409353
2019-05-15T07:26:09.529Z,47.409337
2019-05-15T07:27:13.298Z,47.409288
2019-05-15T07:28:18.122Z,47.409270
2019-05-15T07:29:21.282Z,47.409252
2019-05-15T07:30:24.350Z,47.409343
2019-05-15T07:31:28.891Z,47.409363
2019-05-15T07:32:32.287Z,47.409354
2019-05-15T07:33:40.410Z,47.409228
2019-05-15T07:34:43.304Z,47.409150
2019-05-15T07:35:45.326Z,47.409281
2019-05-15T07:36:49.260Z,47.409349
2019-05-15T07:37:52.338Z,47.409433
2019-05-15T07:38:57.799Z,47.409377
2019-05-15T07:40:01.304Z,47.409380
2019-05-15T07:41:04.625Z,47.409332
2019-05-15T07:42:08.693Z,47.409303
2019-05-15T07:43:12.328Z,47.409313
2019-05-15T07:44:15.379Z,47.409378
2019-05-15T07:45:19.720Z,47.409328
2019-05-15T07:46:23.312Z,47.409357
2019-05-15T07:47:28.800Z,47.409371
2019-05-15T07:48:32.316Z,47.409315
2019-05-15T07:49:35.393Z,47.409413
2019-05-15T07:50:38.899Z,47.409460
2019-05-15T07:51:42.312Z,47.409412
2019-05-15T07:52:45.290Z,47.409401
2019-05-15T07:53:49.022Z,47.409400
2019-05-15T07:54:51.333Z,47.409380
2019-05-15T07:55:54.333Z,47.409423
2019-05-15T07:56:58.221Z,47.409402
2019-05-15T07:58:01.317Z,47.409345
2019-05-15T07:59:04.374Z,47.409350
2019-05-15T08:00:08.252Z,47.409369
2019-05-15T08:01:11.308Z,47.409479
2019-05-15T08:02:14.317Z,47.409473
2019-05-15T08:03:18.411Z,47.409463
2019-05-15T08:04:28.906Z,47.409420
2019-05-15T08:05:29.289Z,47.409449
2019-05-15T08:06:32.330Z,47.409405
2019-05-15T08:07:35.283Z,47.409406
2019-05-15T08:08:39.286Z,47.409405
2019-05-15T08:09:42.331Z,47.409443
2019-05-15T08:10:45.334Z,47.409548
2019-05-15T08:11:48.710Z,47.409475
2019-05-15T08:12:52.276Z,47.409324
2019-05-15T08:13:55.321Z,47.409328
2019-05-15T08:14:58.429Z,47.409355
2019-05-15T08:16:01.309Z,47.409378
2019-05-15T08:17:04.306Z,47.409349
2019-05-15T08:18:09.912Z,47.409368
2019-05-15T08:19:15.324Z,47.409338
2019-05-15T08:20:18.486Z,47.409375
2019-05-15T08:21:21.300Z,47.409268
2019-05-15T08:22:24.350Z,47.409410
2019-05-15T08:23:28.451Z,47.409477
2019-05-15T08:24:31.324Z,47.409419
2019-05-15T08:25:35.474Z,47.409386
2019-05-15T08:26:42.357Z,47.409421
2019-05-15T08:27:48.537Z,47.409418
2019-05-15T08:28:51.307Z,47.409415
2019-05-15T08:29:54.360Z,47.409439
2019-05-15T08:30:58.427Z,47.409429
2019-05-15T08:32:02.381Z,47.409435
2019-05-15T08:33:05.304Z,47.409473
2019-05-15T08:34:15.361Z,47.409394
2019-05-15T08:35:18.927Z,47.409359
2019-05-15T08:36:22.308Z,47.409295
2019-05-15T08:37:25.370Z,47.409391
2019-05-15T08:38:28.949Z,47.409435
2019-05-15T08:39:32.337Z,47.409423
2019-05-15T08:40:35.339Z,47.409454
2019-05-15T08:41:39.098Z,47.409399
2019-05-15T08:42:42.290Z,47.409411
2019-05-15T08:43:45.321Z,47.409422
2019-05-15T08:44:49.004Z,47.409413
2019-05-15T08:45:52.345Z,47.409382
2019-05-15T08:46:55.291Z,47.409351
2019-05-15T08:47:58.670Z,47.409338
2019-05-15T08:49:02.321Z,47.409349
2019-05-15T08:50:05.327Z,47.409369
2019-05-15T08:51:08.858Z,47.409393
2019-05-15T08:52:12.289Z,47.409405
2019-05-15T08:53:15.338Z,47.409390
2019-05-15T08:54:18.482Z,47.409293
2019-05-15T08:55:21.317Z,47.409372
2019-05-15T08:56:24.416Z,47.409401
2019-05-15T08:57:28.973Z,47.409397
2019-05-15T08:58:32.334Z,47.409376
2019-05-15T08:59:35.305Z,47.409370
2019-05-15T09:00:39.794Z,47.409345
2019-05-15T09:01:45.296Z,47.409393
2019-05-15T09:02:48.879Z,47.409440
2019-05-15T09:03:52.304Z,47.409391
2019-05-15T09:04:57.895Z,47.409410
2019-05-15T09:06:01.311Z,47.409327
2019-05-15T09:07:04.388Z,47.409402
2019-05-15T09:08:09.344Z,47.409345
2019-05-15T09:09:12.288Z,47.409370
2019-05-15T09:10:15.345Z,47.409310
2019-05-15T09:11:19.176Z,47.409371
2019-05-15T09:12:21.373Z,47.409317
2019-05-15T09:13:24.315Z,47.409432
2019-05-15T09:14:28.580Z,47.409522
2019-05-15T09:15:32.341Z,47.409466
2019-05-15T09:16:35.331Z,47.409342
2019-05-15T09:17:39.885Z,47.409312
2019-05-15T09:18:43.272Z,47.409312
2019-05-15T09:19:45.320Z,47.409349
2019-05-15T09:20:49.174Z,47.409416
2019-05-15T09:21:52.378Z,47.409433
2019-05-15T09:22:58.266Z,47.409371
2019-05-15T09:24:01.313Z,47.409388
2019-05-15T09:25:04.293Z,47.409291
2019-05-15T09:26:09.221Z,47.409326
2019-05-15T09:27:12.296Z,47.409339
2019-05-15T09:28:15.320Z,47.409405
2019-05-15T09:29:18.461Z,47.409295
2019-05-15T09:30:20.335Z,47.409304
2019-05-15T09:31:23.358Z,47.409378
2019-05-15T09:32:28.312Z,47.409394
2019-05-15T09:33:31.332Z,47.409368
2019-05-15T09:34:47.954Z,47.409307
2019-05-15T09:35:42.346Z,47.409348
2019-05-15T09:36:45.437Z,47.409375
2019-05-15T09:37:48.830Z,47.409444
2019-05-15T09:38:52.312Z,47.409382
2019-05-15T09:39:55.339Z,47.409358
2019-05-15T09:40:58.639Z,47.409354
2019-05-15T09:42:02.332Z,47.409209
2019-05-15T09:43:05.352Z,47.409301
2019-05-15T09:44:08.332Z,47.409385
2019-05-15T09:45:11.331Z,47.409374
2019-05-15T09:46:14.336Z,47.409325
2019-05-15T09:47:18.840Z,47.409378
2019-05-15T09:48:22.331Z,47.409336
2019-05-15T09:49:24.333Z,47.409369
2019-05-15T09:50:28.247Z,47.409372
2019-05-15T09:51:31.320Z,47.409356
2019-05-15T09:52:34.337Z,47.409292
2019-05-15T09:53:39.343Z,47.409334
2019-05-15T09:54:42.331Z,47.409285
2019-05-15T09:55:45.313Z,47.409275
2019-05-15T09:56:50.406Z,47.409253
2019-05-15T09:57:55.156Z,47.409193
2019-05-15T09:58:58.362Z,47.409306
2019-05-15T10:00:01.299Z,47.409439
2019-05-15T10:01:04.284Z,47.409318
2019-05-15T10:02:09.221Z,47.409363
2019-05-15T10:03:12.308Z,47.409396
2019-05-15T10:04:15.312Z,47.409268
2019-05-15T10:05:18.837Z,47.409324
2019-05-15T10:06:24.371Z,47.409322
2019-05-15T10:07:28.584Z,47.409322
2019-05-15T10:08:32.354Z,47.409367
2019-05-15T10:09:35.288Z,47.409341
2019-05-15T10:10:38.305Z,47.409309
2019-05-15T10:11:41.334Z,47.409364
2019-05-15T10:12:44.337Z,47.409317
2019-05-15T10:13:47.352Z,47.409348
2019-05-15T10:14:50.314Z,47.409368
2019-05-15T10:15:53.312Z,47.409374
2019-05-15T10:16:58.412Z,47.409382
2019-05-15T10:18:02.372Z,47.409432
2019-05-15T10:19:05.284Z,47.409421
2019-05-15T10:20:09.155Z,47.409376
2019-05-15T10:21:12.297Z,47.409368
2019-05-15T10:22:15.329Z,47.409360
2019-05-15T10:23:19.465Z,47.409395
2019-05-15T10:24:23.332Z,47.409404
2019-05-15T10:25:28.130Z,47.409410
2019-05-15T10:26:31.300Z,47.409369
2019-05-15T10:27:36.388Z,47.409376
2019-05-15T10:28:41.346Z,47.409392
2019-05-15T10:29:44.326Z,47.409340
2019-05-15T10:30:49.218Z,47.409400
2019-05-15T10:31:53.324Z,47.409371
2019-05-15T10:32:56.328Z,47.409419
2019-05-15T10:33:59.309Z,47.409422
2019-05-15T10:35:02.330Z,47.409424
2019-05-15T10:36:05.297Z,47.409385
2019-05-15T10:37:08.497Z,47.409424
2019-05-15T10:38:11.331Z,47.409473
2019-05-15T10:39:14.317Z,47.409434
2019-05-15T10:40:20.161Z,47.409383
2019-05-15T10:41:23.324Z,47.409350
2019-05-15T10:42:28.875Z,47.409366
2019-05-15T10:43:32.309Z,47.409352
2019-05-15T10:44:35.314Z,47.409434
2019-05-15T10:45:42.405Z,47.409383
2019-05-15T10:46:48.269Z,47.409376
2019-05-15T10:47:51.300Z,47.409392
2019-05-15T10:48:54.351Z,47.409406
2019-05-15T10:49:57.336Z,47.409415
2019-05-15T10:51:05.926Z,47.409419
2019-05-15T10:52:08.727Z,47.409438
2019-05-15T10:53:14.338Z,47.409402
2019-05-15T10:54:19.269Z,47.409408
2019-05-15T10:55:21.305Z,47.409388
2019-05-15T10:56:24.287Z,47.409414
2019-05-15T10:57:28.065Z,47.409401
2019-05-15T10:58:31.379Z,47.409433
2019-05-15T10:59:34.313Z,47.409453
2019-05-15T11:00:37.331Z,47.409445
2019-05-15T11:01:40.306Z,47.409440
2019-05-15T11:02:43.344Z,47.409436
2019-05-15T11:03:46.324Z,47.409439
2019-05-15T11:04:52.329Z,47.409411
2019-05-15T11:05:55.309Z,47.409423
2019-05-15T11:06:58.308Z,47.409450
2019-05-15T11:08:01.314Z,47.409462
2019-05-15T11:09:04.319Z,47.409481
2019-05-15T11:10:08.623Z,47.409461
2019-05-15T11:11:12.310Z,47.409436
2019-05-15T11:12:15.374Z,47.409483
2019-05-15T11:13:18.876Z,47.409524
2019-05-15T11:14:22.334Z,47.409530
2019-05-15T11:15:25.329Z,47.409443
2019-05-15T11:16:28.410Z,47.409327
2019-05-15T11:17:31.607Z,47.409478
2019-05-15T11:18:35.330Z,47.409419
2019-05-15T11:19:40.644Z,47.409562
2019-05-15T11:20:44.311Z,47.409546
2019-05-15T11:21:48.519Z,47.409356
2019-05-15T11:22:51.345Z,47.409428
2019-05-15T11:23:54.339Z,47.409425
2019-05-15T11:24:59.423Z,47.409403
2019-05-15T11:26:02.336Z,47.409369
2019-05-15T11:27:05.295Z,47.409320
2019-05-15T11:28:08.395Z,47.408995
2019-05-15T11:29:11.363Z,47.409360
2019-05-15T11:30:14.296Z,47.409332
2019-05-15T11:31:17.334Z,47.409436
2019-05-15T11:32:20.325Z,47.409600
2019-05-15T11:33:23.326Z,47.409525
2019-05-15T11:34:28.797Z,47.409686
2019-05-15T11:35:32.323Z,47.409508
2019-05-15T11:36:35.278Z,47.409553
2019-05-15T11:37:44.146Z,47.409390
2019-05-15T11:38:45.363Z,47.409411
2019-05-15T11:39:48.411Z,47.409454
2019-05-15T11:40:51.294Z,47.409540
2019-05-15T11:41:54.276Z,47.409499
2019-05-15T11:42:57.300Z,47.409490
2019-05-15T11:44:00.294Z,47.409417
2019-05-15T11:45:03.373Z,47.409483
2019-05-15T11:46:06.318Z,47.409472
2019-05-15T11:47:09.351Z,47.409509
2019-05-15T11:48:12.368Z,47.409508
2019-05-15T11:49:15.298Z,47.409504
2019-05-15T11:50:20.461Z,47.409445
2019-05-15T11:51:24.276Z,47.409485
2019-05-15T11:52:29.485Z,47.409525
2019-05-15T11:53:32.316Z,47.409484
2019-05-15T11:54:35.289Z,47.409473
2019-05-15T11:55:38.810Z,47.409493
2019-05-15T11:56:41.329Z,47.409492
2019-05-15T11:57:47.608Z,47.409472
2019-05-15T11:58:52.313Z,47.409483
2019-05-15T11:59:56.426Z,47.409479
2019-05-15T12:01:02.354Z,47.409478
2019-05-15T12:02:05.270Z,47.409487
2019-05-15T12:03:08.902Z,47.409556
2019-05-15T12:04:26.673Z,47.409522
2019-05-15T12:05:20.275Z,47.409418
2019-05-15T12:06:23.368Z,47.409465
2019-05-15T12:07:28.856Z,47.409465